Time;durP1;ratioP1;P1;durP2;ratioP2;P2;SDS_P1;SDS_P2;PMS_P1;PMS_P2;Temp;Humidity;BMP_temperature;BMP_pressure;BME280_temperature;BME280_humidity;BME280_pressure;Samples;Min_cycle;Max_cycle;Signal;HPM_P1;HPM_P2
2021/05/06 00:32:12;;;;;;;;;13.25;13.25;;;;;10.91;54.18;101064.28;4885615;29;11215;-75
2021/05/06 00:35:09;;;;;;;;;14.25;14.00;;;;;10.92;53.76;101065.91;4898958;29;11013;-76
2021/05/06 00:38:17;;;;;;;;;12.00;10.00;;;;;10.98;53.41;101072.91;4886881;29;11238;-76
2021/05/06 00:54:21;;;;;;;;;10.75;10.75;;;;;10.53;54.76;101055.75;4880368;29;11070;-75
2021/05/06 01:06:12;;;;;;;;;14.75;14.75;;;;;10.81;53.35;101047.97;4880077;29;11311;-75
2021/05/06 01:08:43;;;;;;;;;13.75;13.00;;;;;10.80;53.14;101052.69;4881204;29;11193;-75
2021/05/06 01:11:44;;;;;;;;;13.50;13.25;;;;;10.84;52.51;101050.91;4879192;29;11935;-75
2021/05/06 01:14:40;;;;;;;;;10.00;10.00;;;;;10.94;52.26;101044.25;4882666;29;11504;-75
2021/05/06 01:17:35;;;;;;;;;9.00;9.00;;;;;10.84;52.20;101050.91;4898666;29;11130;-75
2021/05/06 01:20:31;;;;;;;;;14.50;13.50;;;;;11.00;51.83;101036.59;4898044;29;11059;-75
2021/05/06 01:23:29;;;;;;;;;9.00;9.00;;;;;10.97;51.90;101045.56;4898683;29;11380;-75
2021/05/06 01:29:33;;;;;;;;;9.50;9.50;;;;;10.89;52.30;101027.81;4898479;29;11532;-75
2021/05/06 01:32:35;;;;;;;;;14.00;14.00;;;;;10.94;52.61;101030.41;4898574;29;11233;-75
2021/05/06 01:45:12;;;;;;;;;15.75;15.75;;;;;10.85;53.13;101030.41;4897578;29;11576;-75
2021/05/06 02:00:06;;;;;;;;;20.50;20.50;;;;;10.66;53.37;101018.84;4897885;29;11545;-75
2021/05/06 02:03:02;;;;;;;;;25.50;20.75;;;;;10.68;53.17;101013.78;4898251;29;11559;-75
2021/05/06 02:05:57;;;;;;;;;29.75;29.75;;;;;10.71;52.97;101010.38;4897566;29;11528;-75
2021/05/06 02:08:53;;;;;;;;;51.00;43.00;;;;;10.64;53.13;101004.50;4897875;29;11677;-75
2021/05/06 02:11:48;;;;;;;;;55.50;46.25;;;;;10.56;53.62;101010.84;4898834;29;11614;-75
2021/05/06 02:15:06;;;;;;;;;38.50;37.00;;;;;10.67;53.32;101012.16;4897779;29;11604;-75
2021/05/06 02:18:03;;;;;;;;;41.25;38.25;;;;;10.68;53.51;101007.44;4898208;29;11740;-75
2021/05/06 02:20:58;;;;;;;;;44.25;38.00;;;;;10.62;53.62;101012.31;4897209;29;12509;-75
2021/05/06 02:23:54;;;;;;;;;36.50;36.00;;;;;10.68;54.03;101015.75;4897042;29;12506;-75
2021/05/06 02:26:49;;;;;;;;;46.50;38.75;;;;;10.66;53.95;101005.03;4897167;29;12463;-75
2021/05/06 02:29:47;;;;;;;;;42.25;37.50;;;;;10.63;54.00;101011.19;4897472;29;11760;-75
2021/05/06 02:32:42;;;;;;;;;43.00;38.25;;;;;10.69;53.21;101011.84;4884766;29;11671;-75
2021/05/06 02:35:39;;;;;;;;;46.75;39.25;;;;;10.67;53.88;101006.66;4897027;29;11663;-75
2021/05/06 02:38:34;;;;;;;;;37.75;34.00;;;;;10.67;53.26;101003.06;4897185;29;11856;-75
2021/05/06 02:41:30;;;;;;;;;39.75;37.75;;;;;10.77;53.10;101005.50;4897129;29;11672;-75
2021/05/06 02:44:26;;;;;;;;;49.25;41.75;;;;;10.83;53.06;100998.69;4896490;29;11649;-75
2021/05/06 02:47:21;;;;;;;;;59.00;48.25;;;;;10.72;53.31;101000.94;4897200;29;11585;-75
2021/05/06 02:50:21;;;;;;;;;36.00;34.00;;;;;10.83;53.36;101001.44;4897090;29;11607;-75
2021/05/06 02:53:19;;;;;;;;;66.50;52.75;;;;;10.80;54.40;101000.13;4896938;29;11585;-75
2021/05/06 02:56:32;;;;;;;;;60.50;50.75;;;;;10.89;53.96;100996.53;4896781;29;11638;-75
2021/05/06 03:05:39;;;;;;;;;54.50;42.25;;;;;10.87;54.02;100996.88;4896217;29;11618;-75
2021/05/06 03:08:38;;;;;;;;;29.75;29.75;;;;;11.01;53.49;100991.19;4908710;29;11695;-76
2021/05/06 03:12:04;;;;;;;;;29.25;29.00;;;;;11.02;53.40;100988.06;4896670;29;12361;-75
2021/05/06 03:23:26;;;;;;;;;67.25;54.25;;;;;11.34;52.28;100980.38;4897317;29;11695;-75
2021/05/06 03:26:22;;;;;;;;;46.25;37.75;;;;;11.44;52.42;100973.69;4883604;29;11750;-75
2021/05/06 03:29:09;;;;;;;;;58.00;46.75;;;;;11.45;52.13;100981.69;4896700;29;11640;-76
2021/05/06 03:32:22;;;;;;;;;59.50;49.00;;;;;11.54;52.18;100973.34;4896374;29;11623;-76
2021/05/06 04:26:13;;;;;;;;;14.25;14.25;;;;;13.63;52.46;100950.13;4893298;29;10523;-75
2021/05/06 04:29:34;;;;;;;;;13.25;13.25;;;;;13.79;52.90;100958.59;4884035;29;10405;-75
2021/05/06 04:38:24;;;;;;;;;12.75;12.75;;;;;14.19;51.85;100961.53;4892910;29;10235;-75
2021/05/06 04:45:17;;;;;;;;;17.25;13.00;;;;;14.70;50.99;100973.06;4899327;29;9813;-75
2021/05/06 04:55:25;;;;;;;;;8.00;8.00;;;;;15.32;50.36;100967.25;4910723;29;9636;-75
2021/05/06 05:04:33;;;;;;;;;7.00;7.00;;;;;15.83;49.58;100960.69;4881483;29;9346;-75
2021/05/06 05:10:43;;;;;;;;;9.00;9.00;;;;;16.21;48.94;100967.59;4894057;29;9447;-75
2021/05/06 05:19:55;;;;;;;;;5.33;5.33;;;;;16.64;48.34;100968.59;4917826;29;9094;-74
2021/05/06 05:25:56;;;;;;;;;8.00;6.00;;;;;16.96;48.28;100963.72;4918096;29;8845;-71
2021/05/06 05:28:52;;;;;;;;;6.00;5.25;;;;;17.17;47.47;100955.72;4918203;29;9115;-74
2021/05/06 05:31:47;;;;;;;;;6.00;6.00;;;;;17.22;46.69;100947.06;4918339;29;8967;-75
2021/05/06 05:34:33;;;;;;;;;5.50;5.50;;;;;17.28;46.29;100941.19;4918219;29;9652;-75
2021/05/06 05:37:33;;;;;;;;;8.00;8.00;;;;;17.44;47.11;100942.69;4907601;29;8907;-73
2021/05/06 05:40:14;;;;;;;;;6.00;6.00;;;;;17.54;46.98;100944.03;4918129;29;8849;-75
2021/05/06 05:43:27;;;;;;;;;5.00;5.00;;;;;17.68;46.07;100952.69;4917793;29;8984;-75
2021/05/06 05:46:41;;;;;;;;;6.50;6.50;;;;;17.82;46.18;100942.97;4917642;29;8904;-76
2021/05/06 05:55:06;;;;;;;;;6.25;6.25;;;;;18.25;45.86;100936.88;4898788;29;9652;-75
2021/05/06 05:58:02;;;;;;;;;7.50;7.50;;;;;18.48;45.71;100944.38;4909699;29;8861;-73
2021/05/06 06:00:58;;;;;;;;;6.25;6.25;;;;;18.49;44.77;100935.63;4939439;28;8891;-78
2021/05/06 06:03:54;;;;;;;;;5.00;5.00;;;;;18.37;44.19;100935.03;4918443;29;8928;-78
2021/05/06 06:06:49;;;;;;;;;4.50;4.50;;;;;18.34;44.67;100937.41;4905545;29;9693;-78
2021/05/06 06:09:18;;;;;;;;;5.00;5.00;;;;;18.47;44.53;100932.38;4898039;29;8918;-78
2021/05/06 06:11:54;;;;;;;;;5.25;4.75;;;;;18.73;44.32;100934.38;4914546;29;8863;-77
2021/05/06 06:14:36;;;;;;;;;4.00;4.00;;;;;18.67;44.85;100929.47;4916183;29;8879;-78
2021/05/06 06:17:41;;;;;;;;;5.00;5.00;;;;;19.03;44.66;100930.72;4912317;29;8855;-78
2021/05/06 06:20:10;;;;;;;;;5.25;3.75;;;;;19.33;43.72;100911.84;4916131;29;9617;-79
2021/05/06 06:22:39;;;;;;;;;6.00;6.00;;;;;19.19;43.75;100924.91;4912570;29;8847;-79
2021/05/06 06:25:34;;;;;;;;;4.75;4.75;;;;;19.54;39.11;100927.25;4914401;29;9592;-76
2021/05/06 06:28:37;;;;;;;;;5.00;5.00;;;;;19.72;38.42;100914.25;4900697;29;8851;-77
2021/05/06 06:31:45;;;;;;;;;6.00;5.00;;;;;19.93;38.84;100924.81;4901953;29;8847;-78
2021/05/06 06:34:14;;;;;;;;;3.00;3.00;;;;;19.97;38.52;100914.44;4899100;29;8871;-79
2021/05/06 06:36:44;;;;;;;;;5.00;5.00;;;;;20.09;37.67;100905.72;4915737;29;8843;-78
2021/05/06 06:39:40;;;;;;;;;4.25;4.25;;;;;20.32;37.25;100904.63;4910959;29;8943;-78
2021/05/06 06:42:36;;;;;;;;;4.75;4.75;;;;;20.51;38.15;100905.19;4915192;29;9647;-78
2021/05/06 06:45:31;;;;;;;;;4.00;4.00;;;;;20.71;38.18;100899.25;4914858;29;8875;-78
2021/05/06 06:48:27;;;;;;;;;3.00;3.00;;;;;20.83;36.49;100896.88;4914925;29;8858;-78
2021/05/06 06:51:23;;;;;;;;;5.00;4.50;;;;;21.07;36.70;100891.72;4901906;29;8941;-78
2021/05/06 06:54:18;;;;;;;;;4.75;4.75;;;;;21.27;35.39;100883.75;4914657;29;8913;-78
2021/05/06 06:56:52;;;;;;;;;6.00;6.00;;;;;21.36;35.12;100907.50;4899147;29;8844;-78
2021/05/06 06:59:19;;;;;;;;;3.50;3.50;;;;;21.29;35.05;100889.81;4915894;29;8855;-79
2021/05/06 07:02:15;;;;;;;;;3.25;3.25;;;;;21.40;34.41;100895.47;4900682;29;8871;-76
2021/05/06 07:04:43;;;;;;;;;5.00;5.00;;;;;21.42;34.23;100878.97;4915760;29;8889;-76
2021/05/06 07:07:12;;;;;;;;;5.25;5.25;;;;;21.63;33.95;100882.63;4918138;29;8931;-77
2021/05/06 07:09:40;;;;;;;;;3.00;3.00;;;;;21.34;34.59;100878.16;4916383;29;8840;-77
2021/05/06 07:12:36;;;;;;;;;4.00;4.00;;;;;21.56;33.97;100887.44;4914262;29;8989;-75
2021/05/06 07:15:32;;;;;;;;;3.50;3.50;;;;;21.78;33.88;100885.44;4914169;29;8863;-75
2021/05/06 07:18:28;;;;;;;;;3.25;3.25;;;;;21.69;34.14;100902.69;4914545;29;8855;-75
2021/05/06 07:21:25;;;;;;;;;2.00;2.00;;;;;21.86;33.66;100896.28;4914064;29;8974;-74
2021/05/06 07:23:54;;;;;;;;;3.00;2.75;;;;;22.04;33.57;100898.28;4898602;29;8910;-76
2021/05/06 07:26:37;;;;;;;;;3.75;3.75;;;;;22.22;32.87;100889.81;4898470;29;8953;-75
2021/05/06 07:29:33;;;;;;;;;2.75;2.75;;;;;21.83;32.94;100888.63;4901666;29;8993;-75
2021/05/06 07:32:03;;;;;;;;;3.50;3.50;;;;;22.23;32.48;100897.84;4895293;29;8859;-75
2021/05/06 07:34:33;;;;;;;;;6.00;6.00;;;;;21.93;33.52;100899.09;4897697;29;8892;-75
2021/05/06 07:37:28;;;;;;;;;7.00;4.75;;;;;22.25;33.38;100900.28;4913820;29;8881;-75
2021/05/06 07:39:59;;;;;;;;;3.75;3.75;;;;;22.17;33.39;100910.75;4914986;29;8855;-76
2021/05/06 07:42:55;;;;;;;;;3.25;3.25;;;;;22.30;32.56;100913.94;4914049;29;8866;-76
2021/05/06 07:45:51;;;;;;;;;2.75;2.75;;;;;22.52;32.78;100907.03;4913628;29;9610;-74
2021/05/06 07:48:21;;;;;;;;;4.60;3.40;;;;;22.72;32.53;100905.38;4915046;29;8856;-74
2021/05/06 07:50:53;;;;;;;;;3.00;3.00;;;;;22.88;32.84;100902.09;4915021;29;8879;-74
2021/05/06 07:53:26;;;;;;;;;4.00;4.00;;;;;22.81;32.08;100895.66;4915080;29;8942;-74
2021/05/06 07:55:57;;;;;;;;;2.80;2.80;;;;;22.79;32.34;100887.63;4895726;29;8895;-75
2021/05/06 07:58:24;;;;;;;;;5.40;5.40;;;;;22.93;32.55;100893.22;4914901;29;8871;-74
2021/05/06 08:00:52;;;;;;;;;2.60;2.00;;;;;23.07;31.70;100883.06;4914903;29;8863;-76
2021/05/06 08:03:48;;;;;;;;;10.00;7.60;;;;;23.48;31.16;100877.56;4916985;29;9077;-75
2021/05/06 08:06:31;;;;;;;;;2.40;2.40;;;;;23.76;30.80;100888.63;4914645;29;9537;-75
2021/05/06 08:09:27;;;;;;;;;2.40;2.40;;;;;23.73;30.87;100869.72;4911555;29;8874;-76
2021/05/06 08:11:58;;;;;;;;;2.20;2.20;;;;;23.92;30.48;100862.66;4917327;29;8847;-75
2021/05/06 08:14:43;;;;;;;;;3.00;3.00;;;;;24.14;31.40;100868.91;4914522;29;8886;-76
2021/05/06 08:17:40;;;;;;;;;3.00;3.00;;;;;24.22;30.38;100864.78;4913993;29;8954;-75
2021/05/06 08:20:13;;;;;;;;;4.40;4.40;;;;;24.12;29.66;100866.50;4911337;29;8882;-75
2021/05/06 08:22:41;;;;;;;;;3.80;3.80;;;;;24.22;30.25;100867.59;4918010;29;8874;-75
2021/05/06 08:25:38;;;;;;;;;3.80;3.80;;;;;24.35;30.25;100860.22;4904405;29;9036;-76
2021/05/06 08:28:33;;;;;;;;;3.40;3.40;;;;;24.33;30.76;100857.03;4917167;29;8846;-76
2021/05/06 08:31:29;;;;;;;;;4.20;4.20;;;;;24.15;30.90;100856.38;4917368;29;8886;-77
2021/05/06 08:33:57;;;;;;;;;3.00;3.00;;;;;24.28;30.65;100862.31;4917951;29;8855;-75
2021/05/06 08:36:53;;;;;;;;;3.00;3.00;;;;;24.22;30.30;100855.50;4917105;29;8847;-75
2021/05/06 08:39:49;;;;;;;;;2.40;2.40;;;;;24.38;30.03;100859.41;4917147;29;8867;-77
2021/05/06 08:42:44;;;;;;;;;3.80;3.20;;;;;24.33;30.35;100857.03;4906886;29;8922;-77
2021/05/06 08:45:47;;;;;;;;;4.20;4.20;;;;;24.30;30.77;100854.19;4905255;29;8874;-76
2021/05/06 08:48:43;;;;;;;;;3.80;3.80;;;;;23.44;31.66;100862.66;4917732;29;8863;-76
2021/05/06 08:51:11;;;;;;;;;3.60;3.60;;;;;23.47;31.27;100850.56;4919098;29;8859;-77
2021/05/06 08:54:07;;;;;;;;;2.60;2.60;;;;;23.51;31.10;100860.59;4917904;29;8954;-75
2021/05/06 08:56:34;;;;;;;;;2.60;2.60;;;;;23.81;30.28;100862.78;4918252;29;8855;-74
2021/05/06 08:59:31;;;;;;;;;2.40;2.40;;;;;23.79;30.53;100853.94;4905153;29;8866;-76
2021/05/06 09:01:59;;;;;;;;;4.40;4.40;;;;;23.88;30.97;100853.44;4918525;29;8883;-77
2021/05/06 09:04:29;;;;;;;;;3.40;3.40;;;;;23.56;31.78;100843.22;4918767;29;8851;-77
2021/05/06 09:07:24;;;;;;;;;3.40;3.40;;;;;23.21;31.94;100844.28;4917597;29;8859;-78
2021/05/06 09:10:39;;;;;;;;;4.40;4.00;;;;;23.35;31.67;100843.38;4913738;29;9555;-77
2021/05/06 09:13:35;;;;;;;;;2.60;2.60;;;;;23.30;31.75;100850.25;4898387;29;9614;-77
2021/05/06 09:16:42;;;;;;;;;3.40;3.40;;;;;23.10;32.05;100842.75;4889870;29;8852;-77
2021/05/06 09:19:37;;;;;;;;;2.00;2.00;;;;;23.20;31.93;100850.34;4879726;29;8875;-77
2021/05/06 09:22:09;;;;;;;;;4.80;4.80;;;;;23.37;31.83;100840.94;4880649;29;8926;-76
2021/05/06 09:24:36;;;;;;;;;3.20;3.20;;;;;23.18;32.31;100830.22;4896094;29;8954;-77
2021/05/06 09:27:33;;;;;;;;;3.00;3.00;;;;;23.17;31.88;100835.06;4906932;29;8877;-78
2021/05/06 09:30:30;;;;;;;;;4.00;4.00;;;;;23.67;31.31;100828.22;4898783;29;8877;-76
2021/05/06 09:33:34;;;;;;;;;2.60;2.60;;;;;23.92;30.94;100816.69;4881716;29;8868;-76
2021/05/06 09:36:09;;;;;;;;;2.80;2.80;;;;;24.04;30.83;100816.16;4899435;29;8868;-76
2021/05/06 09:39:10;;;;;;;;;3.00;3.00;;;;;23.38;32.58;100817.13;4879591;29;8993;-77
2021/05/06 09:41:38;;;;;;;;;4.40;4.40;;;;;24.11;30.72;100816.06;4889988;29;8961;-76
2021/05/06 09:44:51;;;;;;;;;3.60;3.60;;;;;24.72;29.49;100818.19;4897678;29;8907;-77
2021/05/06 09:47:23;;;;;;;;;3.00;3.00;;;;;24.87;28.66;100830.91;4898682;29;8857;-77
2021/05/06 09:50:24;;;;;;;;;3.80;3.80;;;;;24.98;28.78;100825.06;4897855;29;8881;-76
2021/05/06 09:53:23;;;;;;;;;2.80;2.80;;;;;25.06;28.73;100813.25;4899069;29;8952;-76
2021/05/06 09:56:04;;;;;;;;;3.80;3.80;;;;;25.28;28.20;100815.75;4892396;29;8892;-76
2021/05/06 09:59:00;;;;;;;;;2.60;2.60;;;;;25.25;29.10;100813.78;4878282;29;8875;-76
2021/05/06 10:02:13;;;;;;;;;3.60;3.60;;;;;25.27;29.43;100814.97;4886108;29;8992;-77
2021/05/06 10:04:47;;;;;;;;;2.00;2.00;;;;;24.70;30.03;100820.63;4881985;29;8873;-77
2021/05/06 10:07:22;;;;;;;;;3.40;3.40;;;;;24.94;29.83;100820.28;4898098;29;8886;-77
2021/05/06 10:10:05;;;;;;;;;3.00;3.00;;;;;24.95;29.11;100806.94;4899320;29;8869;-76
2021/05/06 10:13:03;;;;;;;;;2.80;2.80;;;;;24.30;30.85;100808.97;4903750;29;8882;-75
2021/05/06 10:15:59;;;;;;;;;4.80;4.80;;;;;24.66;29.91;100806.53;4916309;29;8887;-76
2021/05/06 10:18:54;;;;;;;;;2.80;2.80;;;;;24.40;30.61;100805.28;4916425;29;8855;-77
2021/05/06 10:21:50;;;;;;;;;3.40;3.40;;;;;23.71;32.21;100792.31;4903467;29;8985;-77
2021/05/06 10:24:47;;;;;;;;;3.00;3.00;;;;;23.45;32.72;100786.03;4915916;29;8937;-76
2021/05/06 10:27:43;;;;;;;;;5.00;5.00;;;;;24.39;31.61;100801.66;4900920;29;8955;-75
2021/05/06 10:30:39;;;;;;;;;2.20;2.20;;;;;24.08;31.63;100794.31;4914982;29;8910;-76
2021/05/06 10:33:41;;;;;;;;;4.00;4.00;;;;;24.06;31.54;100797.56;4898065;29;8853;-77
2021/05/06 10:36:23;;;;;;;;;3.40;3.40;;;;;24.27;31.65;100795.72;4897142;29;8858;-77
2021/05/06 10:39:12;;;;;;;;;2.00;2.00;;;;;24.17;32.23;100796.66;4916571;29;8855;-77
2021/05/06 10:42:26;;;;;;;;;3.60;3.60;;;;;24.70;31.42;100796.00;4927536;29;8863;-75
2021/05/06 10:45:21;;;;;;;;;2.80;2.80;;;;;24.60;31.67;100785.59;4915851;29;8855;-76
2021/05/06 10:48:09;;;;;;;;;3.80;3.80;;;;;24.88;31.24;100776.72;4909842;29;8911;-76
2021/05/06 10:51:37;;;;;;;;;3.20;3.20;;;;;24.52;31.12;100796.22;4902076;29;8843;-76
2021/05/06 10:54:45;;;;;;;;;2.80;2.80;;;;;25.06;29.85;100779.28;4903967;29;8884;-77
2021/05/06 10:57:42;;;;;;;;;1.80;1.80;;;;;25.17;29.72;100774.28;4902556;29;8843;-76
2021/05/06 11:00:38;;;;;;;;;2.60;2.60;;;;;24.84;31.23;100775.16;4915546;29;8847;-76
2021/05/06 11:03:36;;;;;;;;;3.60;3.60;;;;;24.63;31.34;100776.28;4902698;29;8934;-77
2021/05/06 11:06:34;;;;;;;;;4.60;4.60;;;;;24.86;30.61;100773.53;4902771;29;8847;-76
2021/05/06 11:09:49;;;;;;;;;4.40;4.40;;;;;23.84;32.22;100774.38;4916102;29;8878;-77
2021/05/06 11:12:59;;;;;;;;;2.40;2.40;;;;;24.74;30.84;100771.28;4896388;29;8900;-76
2021/05/06 11:16:17;;;;;;;;;2.00;2.00;;;;;24.58;31.38;100768.28;4904568;29;9585;-78
2021/05/06 11:18:51;;;;;;;;;2.80;2.80;;;;;23.75;32.44;100773.28;4897231;29;8855;-76
2021/05/06 11:21:48;;;;;;;;;2.80;2.80;;;;;24.44;31.49;100760.78;4915549;29;8879;-78
2021/05/06 11:24:23;;;;;;;;;3.20;3.20;;;;;24.24;32.07;100766.28;4916308;29;8885;-77
2021/05/06 11:27:21;;;;;;;;;3.00;3.00;;;;;24.12;31.58;100764.78;4902844;29;8919;-77
2021/05/06 11:30:47;;;;;;;;;2.60;2.60;;;;;24.55;31.04;100767.13;4896431;29;8858;-77
2021/05/06 11:33:43;;;;;;;;;3.80;3.80;;;;;24.73;31.10;100766.06;4911398;29;8855;-77
2021/05/06 11:36:38;;;;;;;;;3.00;3.00;;;;;24.43;31.59;100758.38;4914747;29;8982;-77
2021/05/06 11:39:29;;;;;;;;;2.00;2.00;;;;;23.82;31.76;100753.44;4914491;29;8870;-76
2021/05/06 11:42:14;;;;;;;;;3.20;3.20;;;;;24.54;30.83;100747.75;4891962;29;8874;-76
2021/05/06 11:44:42;;;;;;;;;2.60;1.80;;;;;24.67;30.51;100743.91;4915738;29;8875;-77
2021/05/06 11:47:39;;;;;;;;;2.60;2.60;;;;;25.22;30.07;100736.19;4914671;29;8946;-77
2021/05/06 11:50:28;;;;;;;;;3.80;3.80;;;;;25.25;30.20;100737.38;4914550;29;8843;-72
2021/05/06 11:52:59;;;;;;;;;5.80;5.80;;;;;25.62;30.59;100742.78;4887999;29;8864;-71
2021/05/06 11:55:40;;;;;;;;;4.40;4.40;;;;;25.41;28.96;100732.63;4916102;29;8926;-73
2021/05/06 11:58:11;;;;;;;;;2.40;2.40;;;;;25.36;30.24;100735.16;4919970;29;8954;-71
2021/05/06 12:00:40;;;;;;;;;3.00;3.00;;;;;25.17;29.34;100733.88;4918924;29;8859;-73
2021/05/06 12:03:10;;;;;;;;;2.60;2.60;;;;;24.36;30.15;100731.03;4919584;29;8977;-73
2021/05/06 12:05:57;;;;;;;;;2.00;2.00;;;;;25.17;30.18;100731.03;4900232;29;8864;-72
2021/05/06 12:08:52;;;;;;;;;5.40;5.40;;;;;25.41;29.94;100738.28;4913912;29;8857;-70
2021/05/06 12:11:48;;;;;;;;;3.00;2.20;;;;;24.74;28.85;100745.81;4899867;29;8884;-72
2021/05/06 12:14:29;;;;;;;;;3.20;3.20;;;;;25.06;29.32;100731.19;4900766;29;8982;-71
2021/05/06 12:17:25;;;;;;;;;1.80;1.80;;;;;24.75;29.50;100730.44;4926132;29;8965;-71
2021/05/06 12:19:53;;;;;;;;;2.60;2.60;;;;;25.43;29.58;100726.53;4919083;29;8875;-71
2021/05/06 12:22:48;;;;;;;;;4.40;4.40;;;;;25.37;29.43;100728.25;4898265;29;8891;-71
2021/05/06 12:25:31;;;;;;;;;3.60;3.60;;;;;25.37;28.96;100731.06;4900326;29;8860;-69
2021/05/06 12:28:07;;;;;;;;;4.80;3.80;;;;;26.13;28.70;100732.06;4900814;29;8994;-71
2021/05/06 12:31:02;;;;;;;;;2.20;2.20;;;;;26.68;27.30;100733.28;4910330;29;8901;-71
2021/05/06 12:33:58;;;;;;;;;2.40;2.40;;;;;26.69;26.99;100722.78;4918037;29;8862;-72
2021/05/06 12:36:59;;;;;;;;;6.00;6.00;;;;;27.51;26.72;100732.88;4917937;29;8930;-72
2021/05/06 12:39:56;;;;;;;;;5.20;5.20;;;;;27.83;26.31;100726.34;4913577;29;8855;-71
2021/05/06 12:42:34;;;;;;;;;3.40;3.00;;;;;28.01;26.33;100725.06;4899200;29;9058;-71
2021/05/06 12:45:31;;;;;;;;;3.80;3.80;;;;;28.12;25.12;100714.94;4916844;29;8887;-72
2021/05/06 12:47:58;;;;;;;;;1.60;1.60;;;;;27.94;25.94;100714.69;4900769;29;8855;-71
2021/05/06 12:51:02;;;;;;;;;0.20;0.20;;;;;27.98;25.26;100724.69;4900255;29;8878;-71
2021/05/06 12:54:09;;;;;;;;;3.80;3.80;;;;;28.17;24.74;100722.13;4915845;29;9639;-71
2021/05/06 12:57:15;;;;;;;;;3.00;3.00;;;;;28.03;24.77;100717.66;4909379;29;8855;-71
2021/05/06 13:00:22;;;;;;;;;1.80;1.80;;;;;27.82;24.75;100715.44;4914904;29;8975;-72
2021/05/06 13:03:01;;;;;;;;;3.40;3.40;;;;;28.19;25.22;100722.47;4915982;29;8883;-71
2021/05/06 13:06:04;;;;;;;;;1.80;1.80;;;;;28.78;23.79;100723.94;4915775;29;8851;-71
2021/05/06 13:09:00;;;;;;;;;3.20;3.20;;;;;28.65;24.70;100714.59;4916696;29;8867;-71
2021/05/06 13:12:09;;;;;;;;;1.80;1.80;;;;;28.78;22.20;100719.03;4903584;29;8958;-72
2021/05/06 13:15:05;;;;;;;;;2.00;2.00;;;;;28.24;21.92;100716.25;4916130;29;8965;-71
2021/05/06 13:18:09;;;;;;;;;1.00;1.00;;;;;28.60;22.05;100712.31;4903281;29;9585;-71
2021/05/06 13:21:21;;;;;;;;;2.60;2.60;;;;;28.58;22.38;100712.75;4915838;29;8898;-72
2021/05/06 13:24:18;;;;;;;;;2.20;2.20;;;;;28.53;22.43;100699.94;4916676;29;9649;-70
2021/05/06 13:27:20;;;;;;;;;3.20;3.20;;;;;28.80;22.15;100695.81;4915110;29;8962;-72
2021/05/06 13:30:16;;;;;;;;;2.00;2.00;;;;;28.34;21.35;100695.22;4916697;29;8859;-70
2021/05/06 13:33:20;;;;;;;;;3.40;3.40;;;;;28.38;22.45;100689.44;4915400;29;8823;-70
2021/05/06 13:36:23;;;;;;;;;2.80;2.80;;;;;27.83;22.89;100695.09;4917122;29;8851;-72
2021/05/06 13:39:19;;;;;;;;;2.20;2.20;;;;;28.60;20.87;100687.53;4915399;29;9652;-70
2021/05/06 13:42:16;;;;;;;;;3.20;3.20;;;;;28.02;21.91;100693.34;4913790;29;8855;-70
2021/05/06 13:45:12;;;;;;;;;3.40;3.00;;;;;27.34;23.29;100686.69;4902633;29;8855;-71
2021/05/06 13:48:07;;;;;;;;;1.80;1.80;;;;;26.22;23.35;100694.63;4915275;29;8875;-72
2021/05/06 13:50:36;;;;;;;;;10.20;6.60;;;;;26.85;23.56;100698.06;4916333;29;8847;-71
2021/05/06 13:53:12;;;;;;;;;3.80;3.80;;;;;26.58;23.53;100683.31;4915868;29;8863;-72
2021/05/06 13:55:41;;;;;;;;;1.00;1.00;;;;;26.41;23.89;100681.69;4916152;29;8868;-71
2021/05/06 13:58:30;;;;;;;;;2.20;2.20;;;;;26.43;23.16;100691.34;4916228;29;8902;-71
2021/05/06 14:01:26;;;;;;;;;3.00;3.00;;;;;26.66;23.88;100686.78;4913683;29;8855;-71
2021/05/06 14:04:22;;;;;;;;;1.00;1.00;;;;;26.00;24.75;100683.78;4915180;29;9016;-70
2021/05/06 14:07:17;;;;;;;;;2.20;2.20;;;;;25.91;25.46;100680.69;4915028;29;8871;-70
2021/05/06 14:10:13;;;;;;;;;1.00;1.00;;;;;25.73;25.04;100675.41;4913256;29;8859;-70
2021/05/06 14:13:09;;;;;;;;;3.20;3.20;;;;;25.36;24.51;100682.16;4897704;29;8860;-70
2021/05/06 14:16:04;;;;;;;;;2.20;2.20;;;;;24.66;25.96;100685.75;4895932;29;8849;-71
2021/05/06 14:45:23;;;;;;;;;4.80;4.80;;;;;23.88;26.53;100700.94;4880363;29;8815;-71
2021/05/06 14:48:19;;;;;;;;;14.50;13.50;;;;;23.68;27.43;100697.94;4874079;29;8853;-72
2021/05/06 14:51:15;;;;;;;;;6.75;6.75;;;;;23.96;25.31;100699.63;4865781;29;8899;-72
2021/05/06 14:53:43;;;;;;;;;7.80;7.80;;;;;23.95;25.31;100689.56;4894652;29;8860;-71
2021/05/06 14:56:11;;;;;;;;;4.40;3.80;;;;;23.81;24.32;100687.69;4898354;29;8865;-72
2021/05/06 14:58:53;;;;;;;;;2.80;2.80;;;;;23.96;24.72;100685.50;4897812;29;8896;-72
2021/05/06 15:01:48;;;;;;;;;4.40;4.40;;;;;23.93;24.13;100691.22;4896423;29;8972;-72
2021/05/06 15:04:44;;;;;;;;;19.75;19.00;;;;;23.65;25.60;100695.16;4898175;29;8838;-72
2021/05/06 15:07:39;;;;;;;;;1.60;1.60;;;;;23.90;23.99;100695.66;4897367;29;8903;-73
2021/05/06 15:10:30;;;;;;;;;3.20;3.20;;;;;23.57;24.13;100694.41;4899354;29;9629;-72
2021/05/06 15:13:26;;;;;;;;;10.50;9.75;;;;;23.58;24.48;100691.16;4914755;29;8900;-71
2021/05/06 15:15:53;;;;;;;;;2.20;2.20;;;;;23.44;23.07;100690.50;4916053;29;8859;-71
2021/05/06 15:18:21;;;;;;;;;6.40;6.40;;;;;23.34;22.90;100692.22;4915670;29;8868;-71
2021/05/06 15:20:56;;;;;;;;;4.20;4.20;;;;;23.45;22.96;100692.91;4915994;29;8941;-72
2021/05/06 15:23:52;;;;;;;;;3.60;3.60;;;;;23.46;23.83;100682.41;4896916;29;8880;-72
2021/05/06 15:26:19;;;;;;;;;2.80;2.80;;;;;23.27;23.08;100681.00;4915164;29;8988;-72
2021/05/06 15:28:47;;;;;;;;;2.00;2.00;;;;;23.03;23.85;100680.03;4916439;29;8857;-72
2021/05/06 15:31:42;;;;;;;;;4.40;4.00;;;;;23.23;23.91;100672.59;4913116;29;9703;-72
2021/05/06 15:34:38;;;;;;;;;4.20;4.20;;;;;23.00;23.97;100681.66;4915714;29;8865;-73
2021/05/06 15:37:35;;;;;;;;;10.00;8.75;;;;;23.05;24.35;100676.78;4916023;29;8865;-73
2021/05/06 15:40:30;;;;;;;;;4.60;4.60;;;;;23.05;24.72;100669.13;4914620;29;8836;-72
2021/05/06 15:43:03;;;;;;;;;3.00;3.00;;;;;23.04;24.68;100673.16;4922572;29;8863;-72
2021/05/06 15:45:31;;;;;;;;;3.40;3.40;;;;;23.09;25.21;100669.09;4918021;29;8862;-72
2021/05/06 15:48:27;;;;;;;;;2.75;2.75;;;;;22.61;25.63;100665.00;4908954;29;8925;-73
2021/05/06 15:50:54;;;;;;;;;2.80;2.80;;;;;22.58;26.19;100668.66;4914534;29;8868;-72
2021/05/06 15:53:38;;;;;;;;;5.00;4.75;;;;;22.63;26.19;100670.25;4914735;29;8865;-72
2021/05/06 15:56:05;;;;;;;;;5.20;5.00;;;;;22.75;27.35;100675.38;4899820;29;8868;-72
2021/05/06 15:59:01;;;;;;;;;2.75;2.75;;;;;22.66;26.61;100673.03;4935566;29;8891;-73
2021/05/06 16:01:57;;;;;;;;;1.00;1.00;;;;;22.60;26.21;100685.16;4901188;29;8881;-72
2021/05/06 16:04:30;;;;;;;;;3.00;3.00;;;;;22.32;26.91;100681.31;4929710;29;8871;-72
2021/05/06 16:07:20;;;;;;;;;3.00;3.00;;;;;22.23;26.96;100683.75;4906492;29;8927;-73
2021/05/06 16:10:15;;;;;;;;;7.00;6.75;;;;;22.14;29.42;100689.84;4914646;29;8939;-72
2021/05/06 16:13:11;;;;;;;;;2.75;2.75;;;;;22.16;27.97;100687.44;4912712;29;9609;-72
2021/05/06 16:16:07;;;;;;;;;4.25;4.25;;;;;22.10;28.99;100691.09;4907784;29;8862;-72
2021/05/06 16:18:39;;;;;;;;;2.75;2.75;;;;;21.83;28.38;100691.56;4915432;29;8960;-72
2021/05/06 16:21:35;;;;;;;;;2.75;2.75;;;;;21.63;28.58;100691.25;4917848;29;8859;-71
2021/05/06 16:24:31;;;;;;;;;5.25;5.25;;;;;21.86;28.95;100701.22;4899673;29;8867;-71
2021/05/06 16:26:59;;;;;;;;;6.75;6.75;;;;;21.91;30.75;100709.22;4914598;29;8862;-72
2021/05/06 16:29:26;;;;;;;;;4.75;4.75;;;;;21.86;29.91;100701.22;4914385;29;8880;-72
2021/05/06 16:32:22;;;;;;;;;2.00;2.00;;;;;21.86;29.72;100710.47;4912694;29;8855;-71
2021/05/06 16:34:50;;;;;;;;;5.25;5.25;;;;;21.85;31.55;100699.59;4912796;29;8946;-71
2021/05/06 16:37:50;;;;;;;;;3.25;3.25;;;;;21.74;29.79;100713.72;4911724;29;8978;-72
2021/05/06 16:43:27;;;;;;;;;6.25;6.00;;;;;21.54;32.68;100712.56;4918567;29;8855;-73
2021/05/06 16:46:23;;;;;;;;;3.75;3.75;;;;;21.65;31.08;100708.53;4917218;29;8847;-73
2021/05/06 16:48:51;;;;;;;;;3.75;3.75;;;;;21.65;30.96;100718.97;4900068;29;8961;-73
2021/05/06 16:51:47;;;;;;;;;5.25;5.00;;;;;21.44;31.77;100719.00;4918283;29;8877;-77